Time;durP1;ratioP1;P1;durP2;ratioP2;P2;SDS_P1;SDS_P2;PMS_P1;PMS_P2;Temp;Humidity;BMP_temperature;BMP_pressure;BME280_temperature;BME280_humidity;BME280_pressure;Samples;Min_cycle;Max_cycle;Signal;HPM_P1;HPM_P2
2022/12/12 00:01:59;;;;;;;63.47;8.50;;;;;;;17.86;nan;100943.97;6143318;23;20780;-92
2022/12/12 00:04:42;;;;;;;58.87;8.37;;;;;;;17.90;nan;100945.16;6167078;23;20403;-92
2022/12/12 00:07:18;;;;;;;62.97;8.30;;;;;;;17.90;nan;100959.00;6192201;23;20518;-92
2022/12/12 00:10:00;;;;;;;58.70;8.10;;;;;;;17.94;nan;100970.44;6166874;23;20881;-92
2022/12/12 00:12:36;;;;;;;72.67;8.60;;;;;;;17.94;nan;100975.97;6191906;23;20410;-92
2022/12/12 00:15:17;;;;;;;64.10;7.43;;;;;;;17.95;nan;100992.31;6167228;23;20412;-91
2022/12/12 00:17:52;;;;;;;56.03;9.57;;;;;;;17.87;nan;100978.84;6167590;23;21145;-92
2022/12/12 00:20:21;;;;;;;75.77;9.23;;;;;;;17.99;nan;100991.84;6167364;23;20472;-91
2022/12/12 00:23:08;;;;;;;64.43;8.60;;;;;;;18.02;nan;101002.44;6167901;23;20894;-92
2022/12/12 00:25:45;;;;;;;54.37;8.80;;;;;;;18.04;nan;101016.88;6191305;23;20402;-92
2022/12/12 00:28:41;;;;;;;54.53;8.10;;;;;;;18.06;nan;101025.78;6191774;23;20422;-92
2022/12/12 00:31:16;;;;;;;61.50;7.70;;;;;;;18.06;nan;101029.41;6216666;23;20475;-93
2022/12/12 00:33:50;;;;;;;65.03;7.73;;;;;;;18.06;nan;101026.63;6143263;23;20371;-90
2022/12/12 00:36:35;;;;;;;51.53;7.97;;;;;;;18.09;nan;101039.16;6167361;23;20877;-92
2022/12/12 00:39:03;;;;;;;68.33;7.63;;;;;;;18.06;nan;101020.25;6190772;23;20414;-91
2022/12/12 00:41:30;;;;;;;52.13;7.47;;;;;;;18.09;nan;101020.59;6165313;23;20490;-93
2022/12/12 00:44:04;;;;;;;62.17;7.50;;;;;;;18.10;nan;101021.44;6166510;23;20415;-91
2022/12/12 00:46:36;;;;;;;60.17;7.20;;;;;;;18.11;nan;101009.31;6191764;23;20507;-92
2022/12/12 00:49:18;;;;;;;61.43;6.87;;;;;;;18.09;nan;100997.66;6166962;23;20392;-92
2022/12/12 00:52:00;;;;;;;61.83;9.50;;;;;;;18.08;nan;100998.75;6167483;23;20466;-93
2022/12/12 00:54:28;;;;;;;66.53;8.00;;;;;;;18.11;nan;101001.00;6166590;23;20410;-91
2022/12/12 00:57:09;;;;;;;53.20;6.80;;;;;;;18.10;nan;100999.31;6142997;23;20407;-91
2022/12/12 00:59:39;;;;;;;56.20;8.67;;;;;;;18.12;nan;100986.09;6142539;23;20418;-92
2022/12/12 01:02:07;;;;;;;38.77;4.90;;;;;;;18.07;nan;100977.69;6143074;23;20396;-92
2022/12/12 01:04:51;;;;;;;64.97;7.83;;;;;;;18.14;nan;100995.84;6167231;23;20727;-92
2022/12/12 01:07:28;;;;;;;47.17;7.73;;;;;;;18.14;nan;100982.00;6191708;23;20494;-92
2022/12/12 01:09:56;;;;;;;63.97;8.10;;;;;;;18.10;nan;100971.66;6191206;23;20549;-91
2022/12/12 01:12:39;;;;;;;67.30;7.70;;;;;;;18.15;nan;100960.72;6143116;23;20474;-91
2022/12/12 01:15:16;;;;;;;54.00;7.03;;;;;;;18.16;nan;100970.72;6166597;23;20410;-92
2022/12/12 01:17:55;;;;;;;54.93;6.30;;;;;;;18.17;nan;100975.16;6192269;23;20463;-92
2022/12/12 01:20:41;;;;;;;55.63;7.60;;;;;;;18.15;nan;100974.56;6166218;23;20407;-93
2022/12/12 01:23:17;;;;;;;47.17;6.63;;;;;;;18.18;nan;100974.94;6167058;23;20716;-92
2022/12/12 01:26:07;;;;;;;49.60;8.13;;;;;;;18.18;nan;100986.00;6166856;23;20391;-91
2022/12/12 01:29:04;;;;;;;62.93;7.73;;;;;;;18.19;nan;100975.78;6191385;23;20423;-92
2022/12/12 01:31:33;;;;;;;55.13;8.17;;;;;;;18.15;nan;100974.56;6216790;23;20894;-92
2022/12/12 01:34:01;;;;;;;52.63;6.70;;;;;;;18.15;nan;100980.94;6166954;23;20538;-92
2022/12/12 01:36:46;;;;;;;62.13;8.90;;;;;;;18.15;nan;100971.78;6167768;23;20415;-92
2022/12/12 01:39:20;;;;;;;71.37;8.80;;;;;;;18.20;nan;100974.69;6166320;23;20414;-92
2022/12/12 01:41:47;;;;;;;82.00;8.60;;;;;;;18.17;nan;100966.88;6141803;23;20506;-92
2022/12/12 01:45:02;;;;;;;75.10;10.20;;;;;;;18.18;nan;100969.41;6142480;23;20474;-93
2022/12/12 01:47:40;;;;;;;60.07;7.00;;;;;;;18.18;nan;100971.31;6215909;23;20507;-91
2022/12/12 01:50:18;;;;;;;46.70;7.07;;;;;;;18.19;nan;100964.72;6190285;23;20748;-92
2022/12/12 01:52:47;;;;;;;71.90;9.10;;;;;;;18.13;nan;100952.66;6166519;23;20395;-92
2022/12/12 01:55:40;;;;;;;61.00;7.97;;;;;;;18.19;nan;100959.19;6166428;23;20399;-92
2022/12/12 01:58:17;;;;;;;72.93;8.90;;;;;;;18.17;nan;100947.50;6190675;23;20743;-91
2022/12/12 02:00:53;;;;;;;83.40;8.97;;;;;;;18.17;nan;100941.97;6190912;23;20415;-93
2022/12/12 02:03:22;;;;;;;81.13;7.43;;;;;;;18.12;nan;100947.38;6166549;23;20399;-93
2022/12/12 02:06:03;;;;;;;52.07;7.57;;;;;;;18.13;nan;100954.59;6143050;23;20422;-92
2022/12/12 02:08:39;;;;;;;83.20;8.30;;;;;;;18.11;nan;100942.91;6141741;23;20494;-92
2022/12/12 02:11:16;;;;;;;66.70;8.93;;;;;;;18.16;nan;100954.13;6141043;23;20422;-93
2022/12/12 02:13:52;;;;;;;68.07;7.93;;;;;;;18.16;nan;100945.81;6191485;23;20474;-92
2022/12/12 02:20:34;;;;;;;55.20;6.73;;;;;;;18.22;nan;100961.47;6217035;23;20459;-92
2022/12/12 02:23:16;;;;;;;59.33;7.40;;;;;;;18.19;nan;100968.31;6215890;23;20407;-92
2022/12/12 02:33:06;;;;;;;61.17;5.27;;;;;;;18.24;nan;100984.22;6217047;23;20443;-92
2022/12/12 02:36:27;;;;;;;36.60;6.13;;;;;;;18.25;nan;100985.91;6190547;23;20399;-92
2022/12/12 02:39:20;;;;;;;55.67;6.23;;;;;;;18.26;nan;100990.34;6215327;23;20386;-93
2022/12/12 02:42:00;;;;;;;55.97;6.60;;;;;;;18.23;nan;100982.53;6166349;23;20384;-92
2022/12/12 02:48:38;;;;;;;41.13;4.73;;;;;;;18.26;nan;100982.06;6216227;23;20493;-93
2022/12/12 02:51:06;;;;;;;41.87;5.43;;;;;;;18.17;nan;100966.88;6215998;23;20428;-92
2022/12/12 02:53:59;;;;;;;52.00;5.97;;;;;;;18.25;nan;100986.75;6142017;23;20857;-93
2022/12/12 02:56:47;;;;;;;50.00;5.77;;;;;;;18.25;nan;100969.31;6191106;23;20399;-92
2022/12/12 02:59:41;;;;;;;70.67;6.93;;;;;;;18.24;nan;100979.53;6189708;23;20418;-92
2022/12/12 03:02:42;;;;;;;65.43;8.97;;;;;;;18.24;nan;100986.97;6166146;23;20388;-93
2022/12/12 03:12:33;;;;;;;66.63;7.07;;;;;;;18.21;nan;100968.94;6216694;23;20384;-93
2022/12/12 03:15:08;;;;;;;54.83;6.83;;;;;;;18.22;nan;100958.72;6165555;23;20407;-92
2022/12/12 03:17:59;;;;;;;64.93;7.47;;;;;;;18.20;nan;100942.34;6165537;23;20411;-92
2022/12/12 03:21:03;;;;;;;34.67;5.30;;;;;;;18.19;nan;100937.88;6142367;23;20415;-92
2022/12/12 03:23:48;;;;;;;56.47;7.00;;;;;;;18.16;nan;100924.53;6165848;23;20480;-92
2022/12/12 03:26:30;;;;;;;46.20;5.93;;;;;;;18.12;nan;100925.25;6166010;23;20904;-91
2022/12/12 03:29:13;;;;;;;64.77;7.03;;;;;;;18.14;nan;100918.38;6143336;23;20439;-92
2022/12/12 03:31:51;;;;;;;62.23;7.13;;;;;;;18.15;nan;100919.22;6145712;23;20917;-92
2022/12/12 03:34:39;;;;;;;44.07;6.30;;;;;;;18.16;nan;100927.28;6168246;23;20383;-92
2022/12/12 03:37:29;;;;;;;48.47;6.50;;;;;;;18.05;nan;100913.47;6189946;23;20422;-93
2022/12/12 03:40:52;;;;;;;;;;;;;;;;;;;;;
2022/12/12 03:43:49;;;;;;;47.23;5.50;;;;;;;18.14;nan;100934.16;6217900;23;20505;-93
2022/12/12 03:53:48;;;;;;;38.37;5.90;;;;;;;18.11;nan;100935.47;6218757;23;20451;-93
2022/12/12 04:00:26;;;;;;;42.50;5.67;;;;;;;18.13;nan;100943.53;6217816;23;20414;-92
2022/12/12 04:03:22;;;;;;;52.90;6.83;;;;;;;18.12;nan;100944.59;6217201;23;20391;-92
2022/12/12 04:19:00;;;;;;;51.80;6.20;;;;;;;18.10;nan;100910.81;6218209;23;20387;-92
2022/12/12 04:24:49;;;;;;;67.43;8.10;;;;;;;18.08;nan;100896.41;6196328;23;20873;-92
2022/12/12 04:27:21;;;;;;;51.30;5.70;;;;;;;18.07;nan;100894.72;6167136;23;20426;-92
2022/12/12 04:30:02;;;;;;;32.20;4.63;;;;;;;18.11;nan;100901.41;6142921;23;20446;-92
2022/12/12 04:32:52;;;;;;;45.53;5.20;;;;;;;18.12;nan;100905.88;6191834;23;20411;-93
2022/12/12 04:35:47;;;;;;;53.70;6.37;;;;;;;18.12;nan;100903.09;6217305;23;20463;-93
2022/12/12 04:38:18;;;;;;;51.03;6.20;;;;;;;18.10;nan;100894.19;6166877;23;20384;-92
2022/12/12 04:41:17;;;;;;;57.23;6.70;;;;;;;18.13;nan;100916.69;6142002;23;20411;-91
2022/12/12 04:47:36;;;;;;;47.97;6.20;;;;;;;18.14;nan;100903.72;6217805;23;20384;-94
2022/12/12 04:50:05;;;;;;;36.33;5.03;;;;;;;18.13;nan;100905.63;6167057;23;20410;-92
2022/12/12 04:52:42;;;;;;;58.17;7.77;;;;;;;18.14;nan;100914.78;6142772;23;20399;-92
2022/12/12 04:55:24;;;;;;;45.60;7.60;;;;;;;18.13;nan;100899.25;6166701;23;20410;-92
2022/12/12 04:58:10;;;;;;;50.57;6.33;;;;;;;18.12;nan;100903.94;6143184;23;20400;-93
2022/12/12 05:01:19;;;;;;;48.47;6.67;;;;;;;18.14;nan;100909.25;6167282;23;20478;-92
2022/12/12 05:03:57;;;;;;;57.47;8.00;;;;;;;18.14;nan;100907.31;6216250;23;20407;-92
2022/12/12 05:07:00;;;;;;;53.70;6.63;;;;;;;18.14;nan;100907.31;6143693;23;20399;-93
2022/12/12 05:09:36;;;;;;;58.10;6.60;;;;;;;18.06;nan;100881.97;6096958;23;20525;-92
2022/12/12 05:12:46;;;;;;;54.10;5.97;;;;;;;18.17;nan;100897.72;6096410;23;20732;-90
2022/12/12 05:15:33;;;;;;;64.40;7.33;;;;;;;18.15;nan;100889.66;6096329;23;20933;-92
2022/12/12 05:18:04;;;;;;;69.50;7.60;;;;;;;18.12;nan;100883.75;6096796;23;20411;-91
2022/12/12 05:20:32;;;;;;;52.43;6.37;;;;;;;18.10;nan;100874.84;6072419;23;20418;-92
2022/12/12 05:23:06;;;;;;;73.97;7.90;;;;;;;18.09;nan;100873.19;6096377;23;20905;-92
2022/12/12 05:25:34;;;;;;;46.03;6.83;;;;;;;18.06;nan;100865.38;6096579;23;20493;-92
2022/12/12 05:28:42;;;;;;;63.90;6.00;;;;;;;18.12;nan;100880.97;6048681;23;20442;-93
2022/12/12 05:31:12;;;;;;;38.97;5.17;;;;;;;18.12;nan;100897.56;6096829;23;20549;-92
2022/12/12 05:33:40;;;;;;;55.80;6.30;;;;;;;18.06;nan;100884.72;6096696;23;20417;-92
2022/12/12 05:36:08;;;;;;;62.60;7.40;;;;;;;18.04;nan;100879.44;6072838;23;20849;-92
2022/12/12 05:38:46;;;;;;;55.50;5.80;;;;;;;18.10;nan;100883.13;6050006;23;20470;-93
2022/12/12 05:41:15;;;;;;;46.40;6.10;;;;;;;18.08;nan;100869.56;6072694;23;20458;-90
2022/12/12 05:43:52;;;;;;;61.03;7.20;;;;;;;18.11;nan;100869.06;6072857;23;20519;-92
2022/12/12 05:46:59;;;;;;;45.10;6.57;;;;;;;18.12;nan;100867.16;6191790;23;20716;-92
2022/12/12 05:49:48;;;;;;;48.37;6.03;;;;;;;18.13;nan;100874.38;6215661;23;20535;-91
2022/12/12 05:52:22;;;;;;;55.90;7.60;;;;;;;18.10;nan;100870.16;6191202;23;20889;-92
2022/12/12 05:54:53;;;;;;;51.30;7.07;;;;;;;18.12;nan;100876.28;6142471;23;20388;-92
2022/12/12 05:57:33;;;;;;;62.57;6.90;;;;;;;18.13;nan;100888.19;6190508;23;20415;-91
2022/12/12 06:00:28;;;;;;;50.87;7.20;;;;;;;18.14;nan;100898.19;6166789;23;20470;-92
2022/12/12 06:03:23;;;;;;;58.27;5.77;;;;;;;18.14;nan;100900.94;6166062;23;20414;-92
2022/12/12 06:05:57;;;;;;;60.57;5.80;;;;;;;18.09;nan;100892.56;6214968;23;20411;-91
2022/12/12 06:08:27;;;;;;;54.00;6.00;;;;;;;18.10;nan;100888.66;6142167;23;20423;-93
2022/12/12 06:11:07;;;;;;;44.70;6.70;;;;;;;18.12;nan;100895.66;6190900;23;20387;-92
2022/12/12 06:13:36;;;;;;;65.10;6.73;;;;;;;18.16;nan;100896.03;6166285;23;20737;-92
2022/12/12 06:16:10;;;;;;;58.17;8.80;;;;;;;18.14;nan;100898.19;6166153;23;20406;-91
2022/12/12 06:18:37;;;;;;;48.73;7.37;;;;;;;18.15;nan;100886.88;6165998;23;20403;-93
2022/12/12 06:21:36;;;;;;;56.63;8.63;;;;;;;18.18;nan;100880.88;6165627;23;20415;-92
2022/12/12 06:24:11;;;;;;;58.63;10.57;;;;;;;18.18;nan;100891.94;6166487;23;20522;-93
2022/12/12 06:26:49;;;;;;;74.07;9.70;;;;;;;18.17;nan;100886.63;6141469;23;20421;-92
2022/12/12 06:29:34;;;;;;;59.97;9.30;;;;;;;18.15;nan;100894.34;6190089;23;20435;-93
2022/12/12 06:32:24;;;;;;;60.17;11.47;;;;;;;18.16;nan;100907.09;6165901;23;20783;-93
2022/12/12 06:34:51;;;;;;;58.40;8.00;;;;;;;18.11;nan;100905.03;6191171;23;20522;-92
2022/12/12 06:37:35;;;;;;;50.20;6.97;;;;;;;18.12;nan;100903.09;6166618;23;20487;-91
2022/12/12 06:40:06;;;;;;;36.97;7.20;;;;;;;18.12;nan;100908.63;6190155;23;20475;-93
2022/12/12 06:42:34;;;;;;;56.23;7.80;;;;;;;18.05;nan;100910.69;6188789;23;20434;-91
2022/12/12 06:45:25;;;;;;;65.60;12.70;;;;;;;18.08;nan;100919.38;6166103;23;20471;-92
2022/12/12 06:48:28;;;;;;;60.40;10.10;;;;;;;18.07;nan;100905.78;6190435;23;20406;-92
2022/12/12 06:51:17;;;;;;;60.40;9.97;;;;;;;18.02;nan;100911.16;6215606;23;20371;-92
2022/12/12 06:53:55;;;;;;;61.57;7.40;;;;;;;18.01;nan;100924.16;6166204;23;20406;-91
2022/12/12 06:56:32;;;;;;;55.50;7.10;;;;;;;18.00;nan;100916.09;6190782;23;20537;-94
2022/12/12 06:59:10;;;;;;;56.10;7.50;;;;;;;18.02;nan;100919.47;6165591;23;20873;-93
2022/12/12 07:01:54;;;;;;;41.83;7.23;;;;;;;18.02;nan;100919.47;6189499;23;20885;-90
2022/12/12 07:04:22;;;;;;;56.33;6.83;;;;;;;18.00;nan;100907.81;6190719;23;20379;-91
2022/12/12 07:07:10;;;;;;;37.50;5.47;;;;;;;18.03;nan;100910.09;6166346;23;20388;-91
2022/12/12 07:09:38;;;;;;;51.03;7.40;;;;;;;18.00;nan;100897.56;6190033;23;20450;-92
2022/12/12 07:12:33;;;;;;;67.03;8.83;;;;;;;18.04;nan;100917.31;6141206;23;20403;-92
2022/12/12 07:15:00;;;;;;;45.57;6.90;;;;;;;18.01;nan;100912.25;6214925;23;20407;-91
2022/12/12 07:17:38;;;;;;;55.60;7.10;;;;;;;18.02;nan;100905.63;6141573;23;20407;-91
2022/12/12 07:20:20;;;;;;;52.07;12.13;;;;;;;18.04;nan;100922.84;6165975;23;20402;-92
2022/12/12 07:22:49;;;;;;;51.73;8.87;;;;;;;18.06;nan;100924.28;6166145;23;20793;-93
2022/12/12 07:25:27;;;;;;;56.60;7.97;;;;;;;18.07;nan;100933.44;6142127;23;20384;-91
2022/12/12 07:28:02;;;;;;;51.57;7.67;;;;;;;17.99;nan;100917.19;6190256;23;20411;-92
2022/12/12 07:30:51;;;;;;;55.23;8.00;;;;;;;18.06;nan;100934.50;6165556;23;21036;-92
2022/12/12 07:33:34;;;;;;;61.33;7.17;;;;;;;18.04;nan;100923.69;6190713;23;20450;-92
2022/12/12 07:36:12;;;;;;;51.60;7.40;;;;;;;17.98;nan;100915.50;6169323;23;20874;-91
2022/12/12 07:38:49;;;;;;;57.20;6.90;;;;;;;17.97;nan;100916.56;6166545;23;20762;-92
2022/12/12 07:41:19;;;;;;;51.77;7.40;;;;;;;17.97;nan;100911.03;6190378;23;20410;-91
2022/12/12 07:43:49;;;;;;;60.77;6.87;;;;;;;17.98;nan;100918.25;6151927;23;20431;-92
2022/12/12 07:46:54;;;;;;;64.80;6.83;;;;;;;18.00;nan;100916.94;6111549;23;20412;-92
2022/12/12 07:49:28;;;;;;;50.33;8.33;;;;;;;17.97;nan;100917.41;6185774;23;20440;-92
2022/12/12 07:51:57;;;;;;;37.50;7.03;;;;;;;17.95;nan;100909.34;6111944;23;20419;-92
2022/12/12 07:54:30;;;;;;;57.67;8.50;;;;;;;18.00;nan;100918.88;6136445;23;20439;-92
2022/12/12 07:56:59;;;;;;;67.40;10.07;;;;;;;17.93;nan;100919.81;6135880;23;20406;-92
2022/12/12 07:59:36;;;;;;;60.83;8.70;;;;;;;17.97;nan;100917.41;6111796;23;20902;-92
2022/12/12 08:02:08;;;;;;;42.90;7.03;;;;;;;18.00;nan;100928.00;6136455;23;20484;-92
2022/12/12 08:08:34;;;;;;;55.70;7.50;;;;;;;18.07;nan;100928.75;6186383;23;20467;-92
2022/12/12 08:11:12;;;;;;;61.80;8.43;;;;;;;18.08;nan;100929.59;6185908;23;20388;-91
2022/12/12 08:13:56;;;;;;;59.23;8.90;;;;;;;18.12;nan;100926.09;6137624;23;20400;-93
2022/12/12 08:16:39;;;;;;;67.07;8.73;;;;;;;18.14;nan;100934.16;6138492;23;20530;-93
2022/12/12 08:19:11;;;;;;;61.27;7.93;;;;;;;18.16;nan;100926.44;6113915;23;20404;-92
2022/12/12 08:21:44;;;;;;;58.77;8.03;;;;;;;18.18;nan;100935.34;6115738;23;20395;-92
2022/12/12 08:24:22;;;;;;;50.23;6.43;;;;;;;18.29;nan;100940.03;6114391;23;20479;-92
2022/12/12 08:27:22;;;;;;;57.33;8.57;;;;;;;18.32;nan;100942.34;6137907;23;20479;-92
2022/12/12 08:29:53;;;;;;;63.57;7.20;;;;;;;18.32;nan;100941.50;6137958;23;20427;-91
2022/12/12 08:32:23;;;;;;;39.07;7.23;;;;;;;18.32;nan;100931.25;6113351;23;20400;-92
2022/12/12 08:34:57;;;;;;;44.23;6.80;;;;;;;18.39;nan;100948.59;6113135;23;20426;-92
2022/12/12 08:37:30;;;;;;;38.97;7.97;;;;;;;18.46;nan;100954.03;6138933;23;20490;-92
2022/12/12 08:39:59;;;;;;;53.77;8.27;;;;;;;18.47;nan;100942.69;6138552;23;20678;-92
2022/12/12 08:42:28;;;;;;;66.20;7.73;;;;;;;18.55;nan;100953.41;6113110;23;20459;-92
2022/12/12 08:44:57;;;;;;;46.90;6.70;;;;;;;18.53;nan;100949.19;6136828;23;20454;-92
2022/12/12 08:47:57;;;;;;;45.53;8.60;;;;;;;18.57;nan;100948.47;6114992;23;20918;-93
2022/12/12 08:50:29;;;;;;;45.00;6.70;;;;;;;18.57;nan;100951.25;6163094;23;20450;-92
2022/12/12 08:53:02;;;;;;;43.23;6.37;;;;;;;18.67;nan;100955.34;6137823;23;20906;-92
2022/12/12 08:55:49;;;;;;;43.43;6.57;;;;;;;18.68;nan;100957.03;6161763;23;20408;-92
2022/12/12 08:58:17;;;;;;;44.77;6.03;;;;;;;18.83;nan;100977.63;6136052;23;20475;-92
2022/12/12 09:00:45;;;;;;;41.63;6.23;;;;;;;18.87;nan;100969.66;6113877;23;20491;-92
2022/12/12 09:03:20;;;;;;;47.70;8.70;;;;;;;18.87;nan;100961.34;6137102;23;21020;-92
2022/12/12 09:05:55;;;;;;;42.37;9.03;;;;;;;18.93;nan;100961.22;6162342;23;20488;-94
2022/12/12 09:08:27;;;;;;;60.53;8.00;;;;;;;19.00;nan;100963.88;6113846;23;20419;-92
2022/12/12 09:10:55;;;;;;;52.27;8.43;;;;;;;19.03;nan;100949.53;6112043;23;20439;-91
2022/12/12 09:13:24;;;;;;;41.50;7.50;;;;;;;19.13;nan;100959.97;6112152;23;20419;-93
2022/12/12 09:15:53;;;;;;;45.93;7.17;;;;;;;19.10;nan;100950.22;6161523;23;20490;-93
2022/12/12 09:18:21;;;;;;;108.40;37.10;;;;;;;19.16;nan;100960.34;6112284;23;20476;-91
2022/12/12 09:20:52;;;;;;;61.13;13.27;;;;;;;19.17;nan;100962.03;6112348;23;20467;-92
2022/12/12 09:23:20;;;;;;;55.90;7.43;;;;;;;19.22;nan;100970.44;6111682;23;20462;-91
2022/12/12 09:25:48;;;;;;;47.57;7.23;;;;;;;19.28;nan;100963.91;6135709;23;20723;-92
2022/12/12 09:28:18;;;;;;;40.17;6.97;;;;;;;19.33;nan;100977.88;6136834;23;20491;-92
2022/12/12 09:30:46;;;;;;;57.40;7.10;;;;;;;19.32;nan;100965.09;6136045;23;20432;-92
2022/12/12 09:33:14;;;;;;;46.97;5.73;;;;;;;19.35;nan;100988.72;6136562;23;20416;-92
2022/12/12 09:35:42;;;;;;;40.47;7.20;;;;;;;19.37;nan;100974.63;6112375;23;20471;-92
2022/12/12 09:38:09;;;;;;;39.67;5.47;;;;;;;19.38;nan;100976.31;6111617;23;20419;-93
2022/12/12 09:41:19;;;;;;;41.03;6.60;;;;;;;19.42;nan;100981.13;6114137;23;20400;-91
2022/12/12 09:44:07;;;;;;;43.57;6.20;;;;;;;19.35;nan;100971.25;6114240;23;20488;-92
2022/12/12 09:46:48;;;;;;;46.40;7.07;;;;;;;19.48;nan;101001.44;6134462;23;20420;-92
2022/12/12 09:49:22;;;;;;;39.70;6.80;;;;;;;19.50;nan;101002.91;6130801;23;20519;-92
2022/12/12 09:51:50;;;;;;;58.20;7.17;;;;;;;19.54;nan;101006.03;6106371;23;20409;-88
2022/12/12 09:54:19;;;;;;;37.30;5.90;;;;;;;19.61;nan;101020.63;6131014;23;20413;-93
2022/12/12 09:57:04;;;;;;;36.17;6.57;;;;;;;19.70;nan;101008.03;6133136;23;20504;-91
2022/12/12 09:59:50;;;;;;;49.37;7.40;;;;;;;19.85;nan;101008.31;6107718;23;20488;-91
2022/12/12 10:02:33;;;;;;;41.30;6.90;;;;;;;19.94;nan;101012.38;6154757;23;20477;-90
2022/12/12 10:05:03;;;;;;;53.17;8.60;;;;;;;20.08;nan;101014.81;6130834;23;20416;-93
2022/12/12 10:07:55;;;;;;;56.00;7.53;;;;;;;20.14;nan;101011.06;6082892;23;20410;-96
2022/12/12 10:10:50;;;;;;;43.57;6.10;;;;;;;20.28;nan;101017.97;6130550;23;20451;-92
2022/12/12 10:13:20;;;;;;;42.23;5.20;;;;;;;20.48;nan;101018.34;6110191;23;20397;-92
2022/12/12 10:16:08;;;;;;;40.07;6.27;;;;;;;20.65;nan;100993.31;6015148;23;20412;-94
2022/12/12 10:18:42;;;;;;;37.97;5.63;;;;;;;20.79;nan;100996.59;6020459;23;20411;-93
2022/12/12 10:21:29;;;;;;;43.43;7.50;;;;;;;20.91;nan;101008.44;6020327;23;20483;-93
2022/12/12 10:24:15;;;;;;;43.63;6.63;;;;;;;20.98;nan;100997.97;6019497;23;20419;-91
2022/12/12 10:26:44;;;;;;;45.77;6.50;;;;;;;20.91;nan;100986.22;6066968;23;20420;-91
2022/12/12 10:29:51;;;;;;;38.87;5.80;;;;;;;20.88;nan;100995.06;6019920;23;20388;-93
2022/12/12 10:40:01;;;;;;;33.27;5.00;;;;;;;20.79;nan;100991.03;6185029;23;20412;-94
2022/12/12 10:42:48;;;;;;;49.17;7.57;;;;;;;20.87;nan;100987.81;6160401;23;20408;-94
2022/12/12 10:46:05;;;;;;;36.30;7.27;;;;;;;20.88;nan;100984.78;6160322;23;20895;-93
2022/12/12 10:48:35;;;;;;;53.23;15.87;;;;;;;20.78;nan;100975.50;6185413;23;20381;-93
2022/12/12 10:51:11;;;;;;;35.87;6.60;;;;;;;20.62;nan;100958.56;6111406;23;20510;-94
2022/12/12 10:53:51;;;;;;;56.23;8.63;;;;;;;20.60;nan;100955.19;6135910;23;20408;-94
2022/12/12 10:56:22;;;;;;;40.97;6.60;;;;;;;20.69;nan;100959.25;6160666;23;20422;-93
2022/12/12 10:58:55;;;;;;;46.63;8.30;;;;;;;20.71;nan;100947.88;6112141;23;20718;-93
2022/12/12 11:01:30;;;;;;;58.70;7.40;;;;;;;20.95;nan;100979.91;6161022;23;20475;-93
2022/12/12 11:04:33;;;;;;;50.27;8.30;;;;;;;21.01;nan;100961.34;6144059;23;20396;-93
2022/12/12 11:07:19;;;;;;;38.53;7.07;;;;;;;21.03;nan;100950.81;6136010;23;20416;-94
2022/12/12 11:09:48;;;;;;;40.73;5.93;;;;;;;21.17;nan;100967.94;6136288;23;20432;-94
2022/12/12 11:13:13;;;;;;;37.27;5.57;;;;;;;21.25;nan;100973.09;6140932;23;20388;-95
2022/12/12 11:19:38;;;;;;;40.93;7.47;;;;;;;21.29;nan;100949.22;6186539;23;20814;-94
2022/12/12 11:22:12;;;;;;;50.77;8.97;;;;;;;21.23;nan;100941.91;6136440;23;20495;-93
2022/12/12 11:24:49;;;;;;;50.90;9.70;;;;;;;21.28;nan;100959.50;6136183;23;20479;-93
2022/12/12 11:31:11;;;;;;;39.20;5.70;;;;;;;21.35;nan;100943.47;6186579;23;20507;-94
2022/12/12 11:34:33;;;;;;;55.60;6.47;;;;;;;21.44;nan;100962.47;6112542;23;20473;-93
2022/12/12 11:41:18;;;;;;;51.70;7.70;;;;;;;21.24;nan;100955.56;6186746;23;20364;-93
2022/12/12 11:44:06;;;;;;;46.53;10.80;;;;;;;21.17;nan;100946.53;6170152;23;20439;-93
2022/12/12 11:54:12;;;;;;;44.27;7.17;;;;;;;20.93;nan;100925.69;6099668;23;20366;-91
2022/12/12 11:57:01;;;;;;;43.00;6.60;;;;;;;20.92;nan;100937.88;6050707;23;20557;-87
2022/12/12 11:59:53;;;;;;;53.30;7.50;;;;;;;20.97;nan;100937.97;6072803;23;20414;-88
2022/12/12 12:06:36;;;;;;;35.90;6.50;;;;;;;20.95;nan;100907.66;6096490;23;20370;-85
2022/12/12 12:09:22;;;;;;;33.67;6.03;;;;;;;21.08;nan;100923.09;5982906;23;20493;-89
2022/12/12 12:12:20;;;;;;;45.47;6.40;;;;;;;21.19;nan;100913.75;5982083;24;20618;-89
2022/12/12 12:14:48;;;;;;;33.93;6.10;;;;;;;21.28;nan;100917.81;5982197;24;20403;-89
2022/12/12 12:17:41;;;;;;;40.80;6.23;;;;;;;21.32;nan;100899.50;5981949;24;20418;-89
2022/12/12 12:20:38;;;;;;;46.53;7.30;;;;;;;21.32;nan;100910.63;5982338;24;20413;-90
2022/12/12 12:23:12;;;;;;;43.17;6.67;;;;;;;21.30;nan;100900.84;6006682;23;20415;-89
2022/12/12 12:25:48;;;;;;;45.40;6.43;;;;;;;21.22;nan;100898.53;6096214;23;20414;-91
2022/12/12 12:28:36;;;;;;;42.20;7.03;;;;;;;21.18;nan;100897.34;6048406;23;20493;-87
2022/12/12 12:31:16;;;;;;;49.63;6.33;;;;;;;21.13;nan;100892.56;6095734;23;20993;-91
2022/12/12 12:34:07;;;;;;;47.20;7.67;;;;;;;21.16;nan;100900.41;6071735;23;20507;-91
2022/12/12 12:36:43;;;;;;;36.33;8.20;;;;;;;21.20;nan;100915.47;6071649;23;20421;-90
2022/12/12 12:39:50;;;;;;;38.43;7.10;;;;;;;21.20;nan;100903.50;6072542;23;20885;-90
2022/12/12 12:42:31;;;;;;;43.30;6.63;;;;;;;21.15;nan;100911.78;6094068;23;20497;-89
2022/12/12 12:45:14;;;;;;;62.43;6.33;;;;;;;21.14;nan;100907.31;6077749;23;20845;-89
2022/12/12 12:48:06;;;;;;;51.80;6.83;;;;;;;21.10;nan;100900.59;6167954;23;20403;-89
2022/12/12 12:50:40;;;;;;;41.23;6.77;;;;;;;21.09;nan;100905.31;6144530;23;20427;-89
2022/12/12 12:53:17;;;;;;;49.17;7.23;;;;;;;21.02;nan;100913.00;6142016;23;20916;-88
2022/12/12 12:55:49;;;;;;;38.43;7.10;;;;;;;20.88;nan;100878.38;6214608;23;20549;-89
2022/12/12 12:58:24;;;;;;;49.17;7.30;;;;;;;20.92;nan;100879.53;6190160;23;20742;-89
2022/12/12 13:01:20;;;;;;;38.27;7.97;;;;;;;20.89;nan;100891.16;6216180;23;20529;-89
2022/12/12 13:08:08;;;;;;;47.53;6.87;;;;;;;20.92;nan;100876.75;6095686;23;20378;-88
2022/12/12 13:10:37;;;;;;;41.67;9.40;;;;;;;20.86;nan;100864.72;6071791;23;20772;-89
2022/12/12 13:13:26;;;;;;;55.07;7.87;;;;;;;20.97;nan;100879.59;6071784;23;20411;-89
2022/12/12 13:15:59;;;;;;;40.73;8.03;;;;;;;20.97;nan;100877.63;6047260;23;20415;-89
2022/12/12 13:18:29;;;;;;;38.87;6.70;;;;;;;20.95;nan;100859.56;6071897;23;20413;-89
2022/12/12 13:21:34;;;;;;;37.30;5.80;;;;;;;20.97;nan;100865.72;6052350;23;20399;-89
2022/12/12 13:24:25;;;;;;;66.43;17.87;;;;;;;21.05;nan;100862.44;6194174;23;20491;-90
2022/12/12 13:27:17;;;;;;;45.53;8.60;;;;;;;21.15;nan;100867.31;6189883;23;20433;-89
2022/12/12 13:29:55;;;;;;;39.90;7.70;;;;;;;21.23;nan;100859.34;6095069;23;20936;-89
2022/12/12 13:36:34;;;;;;;39.53;6.40;;;;;;;21.42;nan;100864.53;6095599;23;20925;-88
2022/12/12 13:39:03;;;;;;;42.60;7.00;;;;;;;21.46;nan;100854.59;6071735;23;20925;-88
2022/12/12 13:42:13;;;;;;;37.80;6.03;;;;;;;21.58;nan;100855.25;6047889;23;20490;-89
2022/12/12 13:44:44;;;;;;;37.27;7.37;;;;;;;21.60;nan;100850.25;6095012;23;20514;-89
2022/12/12 13:47:22;;;;;;;39.73;6.30;;;;;;;21.64;nan;100859.75;6048187;23;20414;-88
2022/12/12 13:49:57;;;;;;;38.47;6.30;;;;;;;21.66;nan;100868.69;6094326;23;20414;-88
2022/12/12 13:52:31;;;;;;;42.17;6.40;;;;;;;21.73;nan;100858.19;6048031;23;20488;-88
2022/12/12 13:55:12;;;;;;;35.33;5.83;;;;;;;21.73;nan;100862.91;6136780;23;20968;-88
2022/12/12 13:57:58;;;;;;;36.70;6.10;;;;;;;21.70;nan;100855.94;6214600;23;20800;-88
2022/12/12 14:00:36;;;;;;;42.10;6.10;;;;;;;21.60;nan;100865.00;6214526;23;20478;-88
2022/12/12 14:03:09;;;;;;;26.80;5.03;;;;;;;21.51;nan;100860.19;6190129;23;20479;-88
2022/12/12 14:06:06;;;;;;;43.17;7.27;;;;;;;21.36;nan;100856.13;6215576;23;20411;-93
2022/12/12 17:10:29;;;;;;;49.20;6.90;;;;;;;19.79;nan;100890.06;6187068;23;20788;-92
2022/12/12 17:20:40;;;;;;;46.63;7.40;;;;;;;19.67;nan;100855.97;6187350;23;20379;-92
2022/12/12 17:58:01;;;;;;;70.63;8.90;;;;;;;19.65;nan;100891.44;6133843;23;20358;-96